createdAt,value
2022-12-05T00:01:27.599Z,5.00
2022-12-05T00:04:00.224Z,5.00
2022-12-05T00:06:29.786Z,5.10
2022-12-05T00:08:57.903Z,5.10
2022-12-05T00:11:30.666Z,5.10
2022-12-05T00:13:59.722Z,5.00
2022-12-05T00:16:33.069Z,5.10
2022-12-05T00:19:01.566Z,5.10
2022-12-05T00:21:31.145Z,5.20
2022-12-05T00:23:59.822Z,5.20
2022-12-05T00:26:28.364Z,5.20
2022-12-05T00:28:56.465Z,5.20
2022-12-05T00:31:24.966Z,5.30
2022-12-05T00:33:53.278Z,5.20
2022-12-05T00:36:23.762Z,5.30
2022-12-05T00:38:51.297Z,5.20
2022-12-05T00:41:21.117Z,5.10
2022-12-05T00:43:48.612Z,5.20
2022-12-05T00:46:21.883Z,5.20
2022-12-05T00:48:49.319Z,5.10
2022-12-05T00:51:19.583Z,5.10
2022-12-05T00:53:47.812Z,5.20
2022-12-05T00:56:23.396Z,5.20
2022-12-05T00:58:52.747Z,5.20
2022-12-05T01:01:28.830Z,5.20
2022-12-05T01:03:58.473Z,5.20
2022-12-05T01:06:27.343Z,5.10
2022-12-05T01:08:56.203Z,5.00
2022-12-05T01:11:25.265Z,5.00
2022-12-05T01:13:53.296Z,4.90
2022-12-05T01:16:25.865Z,4.90
2022-12-05T01:18:53.726Z,4.80
2022-12-05T01:21:21.245Z,4.90
2022-12-05T01:23:48.045Z,4.90
2022-12-05T01:26:16.728Z,4.90
2022-12-05T01:28:43.980Z,4.90
2022-12-05T01:31:28.393Z,4.80
2022-12-05T01:33:57.800Z,4.90
2022-12-05T01:36:26.656Z,4.90
2022-12-05T01:38:54.390Z,4.90
2022-12-05T01:41:27.351Z,5.00
2022-12-05T01:44:02.101Z,4.90
2022-12-05T01:46:32.081Z,5.00
2022-12-05T01:49:18.314Z,4.90
2022-12-05T01:51:51.914Z,5.10
2022-12-05T01:54:20.985Z,5.00
2022-12-05T01:56:58.645Z,5.00
2022-12-05T01:59:27.573Z,5.00
2022-12-05T02:01:55.081Z,4.80
2022-12-05T02:04:22.155Z,4.70
2022-12-05T02:06:49.047Z,4.80
2022-12-05T02:09:15.870Z,4.80
2022-12-05T02:11:57.646Z,4.90
2022-12-05T02:14:30.673Z,4.90
2022-12-05T02:17:00.251Z,4.80
2022-12-05T02:19:33.666Z,4.70
2022-12-05T02:22:42.933Z,4.70
2022-12-05T02:25:18.632Z,4.70
2022-12-05T02:28:10.134Z,4.70
2022-12-05T02:30:58.266Z,4.60
2022-12-05T02:33:46.309Z,4.70
2022-12-05T02:36:19.046Z,4.70
2022-12-05T02:38:51.639Z,4.70
2022-12-05T02:41:36.178Z,4.70
2022-12-05T02:44:07.990Z,4.60
2022-12-05T02:46:38.127Z,4.70
2022-12-05T02:49:09.553Z,4.70
2022-12-05T02:51:52.142Z,4.60
2022-12-05T02:54:24.312Z,4.60
2022-12-05T02:56:53.151Z,4.60
2022-12-05T02:59:23.547Z,4.60
2022-12-05T03:01:51.714Z,4.60
2022-12-05T03:04:21.307Z,4.60
2022-12-05T03:06:58.182Z,4.50
2022-12-05T03:09:35.763Z,4.50
2022-12-05T03:12:07.487Z,4.50
2022-12-05T03:14:41.985Z,4.50
2022-12-05T03:17:14.881Z,4.60
2022-12-05T03:19:58.949Z,4.60
2022-12-05T03:22:29.112Z,4.60
2022-12-05T03:24:57.085Z,4.60
2022-12-05T03:27:32.828Z,4.50
2022-12-05T03:30:08.826Z,4.50
2022-12-05T03:33:00.431Z,4.40
2022-12-05T03:35:31.416Z,4.40
2022-12-05T03:38:03.820Z,4.40
2022-12-05T03:40:38.327Z,4.40
2022-12-05T03:43:10.856Z,4.40
2022-12-05T03:45:50.378Z,4.20
2022-12-05T03:48:26.069Z,4.30
2022-12-05T03:50:54.313Z,4.30
2022-12-05T03:53:32.061Z,4.30
2022-12-05T03:56:10.876Z,4.30
2022-12-05T03:58:47.646Z,4.30
2022-12-05T04:01:18.383Z,4.20
2022-12-05T04:03:51.984Z,4.30
2022-12-05T04:06:27.892Z,4.30
2022-12-05T04:09:00.204Z,4.30
2022-12-05T04:11:30.809Z,4.40
2022-12-05T04:14:24.663Z,4.30
2022-12-05T04:17:04.547Z,4.40
2022-12-05T04:20:12.915Z,4.40
2022-12-05T04:22:40.245Z,4.40
2022-12-05T04:25:30.135Z,4.40
2022-12-05T04:28:22.310Z,4.50
2022-12-05T04:30:54.203Z,4.40
2022-12-05T04:33:44.447Z,4.40
2022-12-05T04:36:22.952Z,4.30
2022-12-05T04:39:03.939Z,4.40
2022-12-05T04:41:41.829Z,4.40
2022-12-05T04:44:12.631Z,4.40
2022-12-05T04:46:43.702Z,4.30
2022-12-05T04:49:14.055Z,4.50
2022-12-05T04:51:42.598Z,4.30
2022-12-05T04:54:24.644Z,4.40
2022-12-05T04:57:01.037Z,4.40
2022-12-05T04:59:28.362Z,4.40
2022-12-05T05:02:00.242Z,4.40
2022-12-05T05:04:48.828Z,4.30
2022-12-05T05:07:16.085Z,4.30
2022-12-05T05:09:44.305Z,4.30
2022-12-05T05:12:17.241Z,4.40
2022-12-05T05:14:46.418Z,4.40
2022-12-05T05:17:13.226Z,4.40
2022-12-05T05:19:40.467Z,4.30
2022-12-05T05:22:07.320Z,4.40
2022-12-05T05:24:34.403Z,4.40
2022-12-05T05:27:01.239Z,4.40
2022-12-05T05:29:28.371Z,4.40
2022-12-05T05:31:55.256Z,4.40
2022-12-05T05:34:22.082Z,4.40
2022-12-05T05:36:53.016Z,4.30
2022-12-05T05:39:20.675Z,4.40
2022-12-05T05:41:47.514Z,4.30
2022-12-05T05:44:14.356Z,4.30
2022-12-05T05:46:41.236Z,4.30
2022-12-05T05:49:08.405Z,4.30
2022-12-05T05:51:35.465Z,4.40
2022-12-05T05:54:02.648Z,4.40
2022-12-05T05:56:29.571Z,4.40
2022-12-05T05:59:05.665Z,4.50
2022-12-05T06:01:32.840Z,4.50
2022-12-05T06:03:59.992Z,4.50
2022-12-05T06:06:27.139Z,4.40
2022-12-05T06:08:55.287Z,4.40
2022-12-05T06:11:27.306Z,4.50
2022-12-05T06:14:02.184Z,4.50
2022-12-05T06:16:31.385Z,4.50
2022-12-05T06:18:59.185Z,4.60
2022-12-05T06:21:26.514Z,4.60
2022-12-05T06:23:54.687Z,4.50
2022-12-05T06:26:22.852Z,4.50
2022-12-05T06:28:50.235Z,4.50
2022-12-05T06:31:20.861Z,4.60
2022-12-05T06:33:48.516Z,4.60
2022-12-05T06:36:18.832Z,4.60
2022-12-05T06:38:45.688Z,4.50
2022-12-05T06:41:16.801Z,4.50
2022-12-05T06:43:43.970Z,4.50
2022-12-05T06:46:18.811Z,4.60
2022-12-05T06:48:45.969Z,4.70
2022-12-05T06:51:16.056Z,4.60
2022-12-05T06:53:44.115Z,4.60
2022-12-05T06:56:14.057Z,4.60
2022-12-05T06:58:43.285Z,4.50
2022-12-05T07:01:33.895Z,4.50
2022-12-05T07:04:01.974Z,4.60
2022-12-05T07:06:29.349Z,4.60
2022-12-05T07:08:56.726Z,4.60
2022-12-05T07:11:23.609Z,4.50
2022-12-05T07:13:53.492Z,4.50
2022-12-05T07:16:20.626Z,4.50
2022-12-05T07:18:47.629Z,4.50
2022-12-05T07:21:16.409Z,4.50
2022-12-05T07:23:45.410Z,4.40
2022-12-05T07:26:23.585Z,4.40
2022-12-05T07:28:52.058Z,4.40
2022-12-05T07:31:22.961Z,4.40
2022-12-05T07:33:50.490Z,4.40
2022-12-05T07:36:20.543Z,4.40
2022-12-05T07:38:47.558Z,4.50
2022-12-05T07:41:29.528Z,4.50
2022-12-05T07:43:57.959Z,4.60
2022-12-05T07:46:27.219Z,4.40
2022-12-05T07:48:54.439Z,4.50
2022-12-05T07:51:21.728Z,4.50
2022-12-05T07:53:48.989Z,4.40
2022-12-05T07:56:18.255Z,4.60
2022-12-05T07:58:47.101Z,4.60
2022-12-05T08:01:15.539Z,4.60
2022-12-05T08:03:43.498Z,4.70
2022-12-05T08:06:17.038Z,4.70
2022-12-05T08:08:44.954Z,4.70
2022-12-05T08:11:17.540Z,4.80
2022-12-05T08:13:45.315Z,4.70
2022-12-05T08:16:14.984Z,4.70
2022-12-05T08:18:42.904Z,4.70
2022-12-05T08:21:15.256Z,4.80
2022-12-05T08:23:43.321Z,4.80
2022-12-05T08:26:13.997Z,4.80
2022-12-05T08:28:41.431Z,4.80
2022-12-05T08:31:11.398Z,4.80
2022-12-05T08:33:38.451Z,4.90
2022-12-05T08:36:08.483Z,4.90
2022-12-05T08:38:36.358Z,4.90
2022-12-05T08:41:08.977Z,4.90
2022-12-05T08:43:36.090Z,4.90
2022-12-05T08:46:04.483Z,4.80
2022-12-05T08:48:35.001Z,4.90
2022-12-05T08:51:10.452Z,4.90
2022-12-05T08:53:44.175Z,4.90
2022-12-05T08:56:12.080Z,4.90
2022-12-05T08:58:40.175Z,5.00
2022-12-05T09:01:13.106Z,5.00
2022-12-05T09:03:47.387Z,5.10
2022-12-05T09:06:25.278Z,4.90
2022-12-05T09:08:59.112Z,4.90
2022-12-05T09:11:29.802Z,4.90
2022-12-05T09:13:58.716Z,4.90
2022-12-05T09:16:37.037Z,4.90
2022-12-05T09:19:07.449Z,4.90
2022-12-05T09:21:34.529Z,4.90
2022-12-05T09:24:01.588Z,5.00
2022-12-05T09:26:30.604Z,5.00
2022-12-05T09:28:58.049Z,5.00
2022-12-05T09:31:30.654Z,5.10
2022-12-05T09:33:58.201Z,5.10
2022-12-05T09:36:28.444Z,5.10
2022-12-05T09:38:59.047Z,5.10
2022-12-05T09:42:05.614Z,5.20
2022-12-05T09:44:45.055Z,5.10
2022-12-05T09:47:20.895Z,5.20
2022-12-05T09:50:10.788Z,5.20
2022-12-05T09:53:03.070Z,5.20
2022-12-05T09:55:42.319Z,5.30
2022-12-05T09:58:37.622Z,5.30
2022-12-05T10:01:50.137Z,5.30
2022-12-05T10:04:29.727Z,5.40
2022-12-05T10:07:27.041Z,5.50
2022-12-05T10:10:20.004Z,5.40
2022-12-05T10:12:54.032Z,5.50
2022-12-05T10:16:11.342Z,5.50
2022-12-05T10:19:01.316Z,5.60
2022-12-05T10:21:36.619Z,5.60
2022-12-05T10:24:13.234Z,5.60
2022-12-05T10:26:51.531Z,5.60
2022-12-05T10:29:24.300Z,5.70
2022-12-05T10:31:57.062Z,5.80
2022-12-05T10:34:39.943Z,5.90
2022-12-05T10:37:21.396Z,5.90
2022-12-05T10:39:50.124Z,5.90
2022-12-05T10:42:23.417Z,6.00
2022-12-05T10:44:57.296Z,6.00
2022-12-05T10:47:25.003Z,6.10
2022-12-05T10:49:53.970Z,6.10
2022-12-05T10:52:21.135Z,6.10
2022-12-05T10:54:56.115Z,6.20
2022-12-05T10:57:30.433Z,6.10
2022-12-05T10:59:58.330Z,6.10
2022-12-05T11:02:31.410Z,6.20
2022-12-05T11:04:59.821Z,6.30
2022-12-05T11:07:31.254Z,6.30
2022-12-05T11:10:04.563Z,6.30
2022-12-05T11:12:39.300Z,6.30
2022-12-05T11:15:31.044Z,6.20
2022-12-05T11:18:19.525Z,6.30
2022-12-05T11:20:46.473Z,6.30
2022-12-05T11:23:28.654Z,6.30
2022-12-05T11:25:57.612Z,6.30
2022-12-05T11:28:31.479Z,6.40
2022-12-05T11:31:06.436Z,6.40
2022-12-05T11:33:36.533Z,6.50
2022-12-05T11:36:19.984Z,6.50
2022-12-05T11:38:47.371Z,6.60
2022-12-05T11:41:25.909Z,6.70
2022-12-05T11:43:52.648Z,6.90
2022-12-05T11:46:47.229Z,6.70
2022-12-05T11:49:55.896Z,6.60
2022-12-05T11:52:36.075Z,6.60
2022-12-05T11:55:25.410Z,6.60
2022-12-05T11:58:12.396Z,6.80
2022-12-05T12:01:04.208Z,6.80
2022-12-05T12:03:41.800Z,6.80
2022-12-05T12:06:25.610Z,6.70
2022-12-05T12:09:20.033Z,6.60
2022-12-05T12:12:05.760Z,6.70
2022-12-05T12:14:47.497Z,6.70
2022-12-05T12:17:42.225Z,6.70
2022-12-05T12:20:21.366Z,6.70
2022-12-05T12:23:03.246Z,6.70
2022-12-05T12:26:05.564Z,6.70
2022-12-05T12:28:45.748Z,6.80
2022-12-05T12:31:12.897Z,6.70
2022-12-05T12:33:44.088Z,6.80
2022-12-05T12:37:09.954Z,6.80
2022-12-05T12:39:43.096Z,6.90
2022-12-05T12:42:27.971Z,6.80
2022-12-05T12:45:06.235Z,6.90
2022-12-05T12:47:47.777Z,7.00
2022-12-05T12:50:14.597Z,7.00
2022-12-05T12:52:59.138Z,7.00
2022-12-05T12:55:40.593Z,7.10
2022-12-05T12:58:31.771Z,7.00
2022-12-05T13:01:23.387Z,7.00
2022-12-05T13:04:06.763Z,7.10
2022-12-05T13:06:46.941Z,7.20
2022-12-05T13:09:28.583Z,7.10
2022-12-05T13:11:58.658Z,7.10
2022-12-05T13:14:27.913Z,7.10
2022-12-05T13:16:57.157Z,7.10
2022-12-05T13:19:37.471Z,7.10
2022-12-05T13:22:06.602Z,7.10
2022-12-05T13:24:33.661Z,7.10
2022-12-05T13:27:22.864Z,7.10
2022-12-05T13:29:57.288Z,6.90
2022-12-05T13:32:32.214Z,7.00
2022-12-05T13:35:09.984Z,6.90
2022-12-05T13:38:03.787Z,6.90
2022-12-05T13:40:56.148Z,6.90
2022-12-05T13:43:27.837Z,6.90
2022-12-05T13:46:08.683Z,6.90
2022-12-05T13:48:42.572Z,6.90
2022-12-05T13:51:20.975Z,6.90
2022-12-05T13:53:57.097Z,6.90
2022-12-05T13:56:44.895Z,6.90
2022-12-05T13:59:11.805Z,6.90
2022-12-05T14:01:50.344Z,6.90
2022-12-05T14:04:50.600Z,6.90
2022-12-05T14:07:39.751Z,6.90
2022-12-05T14:10:08.759Z,6.90
2022-12-05T14:13:03.039Z,6.90
2022-12-05T14:15:38.913Z,6.80
2022-12-05T14:18:11.462Z,6.90
2022-12-05T14:21:08.418Z,6.90
2022-12-05T14:23:41.294Z,7.00
2022-12-05T14:26:33.955Z,6.90
2022-12-05T14:29:40.084Z,6.80
2022-12-05T14:32:35.256Z,6.90
2022-12-05T14:35:12.562Z,6.90
2022-12-05T14:37:56.014Z,6.90
2022-12-05T14:40:37.044Z,6.80
2022-12-05T14:43:07.497Z,6.90
2022-12-05T14:45:39.688Z,6.90
2022-12-05T14:48:16.025Z,6.90
2022-12-05T14:50:47.694Z,6.90
2022-12-05T14:53:20.624Z,6.80
2022-12-05T14:56:06.375Z,6.80
2022-12-05T14:58:48.786Z,6.80
2022-12-05T15:01:15.648Z,6.80
2022-12-05T15:04:06.599Z,6.80
2022-12-05T15:07:07.562Z,6.90
2022-12-05T15:10:01.570Z,6.90
2022-12-05T15:12:41.524Z,6.90
2022-12-05T15:15:41.820Z,6.90
2022-12-05T15:18:30.191Z,6.90
2022-12-05T15:21:10.796Z,6.90
2022-12-05T15:23:49.659Z,6.90
2022-12-05T15:26:46.191Z,6.90
2022-12-05T15:29:25.878Z,6.90
2022-12-05T15:32:03.365Z,7.00
2022-12-05T15:34:32.253Z,7.00
2022-12-05T15:37:19.597Z,7.00
2022-12-05T15:39:59.226Z,6.90
2022-12-05T15:42:37.269Z,6.90
2022-12-05T15:45:15.841Z,6.90
2022-12-05T15:47:49.852Z,6.90
2022-12-05T15:50:38.791Z,6.90
2022-12-05T15:53:32.312Z,6.90
2022-12-05T15:56:15.793Z,6.90
2022-12-05T15:58:52.309Z,6.90
2022-12-05T16:01:24.965Z,6.90
2022-12-05T16:03:59.892Z,6.90
2022-12-05T16:07:03.694Z,7.00
2022-12-05T16:09:38.372Z,7.00
2022-12-05T16:12:16.106Z,7.00
2022-12-05T16:14:59.452Z,7.10
2022-12-05T16:17:38.386Z,7.00
2022-12-05T16:20:17.325Z,7.00
2022-12-05T16:22:56.842Z,7.00
2022-12-05T16:25:27.488Z,7.00
2022-12-05T16:28:01.205Z,7.00
2022-12-05T16:30:29.637Z,7.10
2022-12-05T16:33:05.683Z,7.00
2022-12-05T16:35:40.042Z,7.10
2022-12-05T16:38:14.896Z,7.10
2022-12-05T16:40:54.042Z,7.00
2022-12-05T16:43:32.945Z,7.00
2022-12-05T16:46:09.434Z,7.10
2022-12-05T16:48:36.692Z,7.10
2022-12-05T16:51:27.216Z,7.10
2022-12-05T16:53:56.017Z,7.00
2022-12-05T16:56:24.513Z,7.10
2022-12-05T16:58:51.857Z,7.10
2022-12-05T17:01:24.181Z,7.10
2022-12-05T17:03:53.844Z,7.10
2022-12-05T17:06:23.475Z,7.10
2022-12-05T17:08:52.132Z,7.10
2022-12-05T17:11:31.662Z,7.10
2022-12-05T17:13:59.766Z,7.10
2022-12-05T17:16:28.049Z,7.10
2022-12-05T17:18:55.213Z,7.10
2022-12-05T17:21:29.802Z,7.00
2022-12-05T17:23:57.750Z,7.00
2022-12-05T17:26:24.554Z,7.10
2022-12-05T17:28:52.131Z,7.10
2022-12-05T17:31:24.399Z,7.10
2022-12-05T17:33:53.654Z,7.10
2022-12-05T17:36:21.300Z,7.10
2022-12-05T17:38:49.304Z,7.10
2022-12-05T17:41:23.117Z,7.10
2022-12-05T17:43:51.670Z,7.10
2022-12-05T17:46:23.901Z,7.10
2022-12-05T17:48:52.093Z,7.10
2022-12-05T17:51:20.372Z,7.10
2022-12-05T17:53:47.847Z,7.10
2022-12-05T17:56:14.974Z,7.10
2022-12-05T17:58:42.708Z,7.10
2022-12-05T18:01:16.577Z,7.10
2022-12-05T18:03:44.155Z,7.10
2022-12-05T18:06:11.163Z,7.10
2022-12-05T18:08:39.948Z,7.20
2022-12-05T18:11:07.476Z,7.20
2022-12-05T18:13:35.286Z,7.20
2022-12-05T18:16:02.847Z,7.20
2022-12-05T18:18:30.105Z,7.10
2022-12-05T18:21:12.378Z,7.10
2022-12-05T18:23:40.517Z,7.20
2022-12-05T18:26:09.273Z,7.20
2022-12-05T18:28:37.715Z,7.20
2022-12-05T18:31:16.424Z,7.20
2022-12-05T18:33:45.057Z,7.20
2022-12-05T18:36:16.033Z,7.20
2022-12-05T18:38:48.884Z,7.20
2022-12-05T18:41:19.114Z,7.10
2022-12-05T18:43:46.344Z,7.10
2022-12-05T18:46:13.653Z,7.10
2022-12-05T18:48:44.886Z,7.10
2022-12-05T18:51:20.871Z,7.10
2022-12-05T18:53:53.385Z,7.10
2022-12-05T18:56:24.510Z,7.00
2022-12-05T18:59:03.026Z,7.00
2022-12-05T19:01:31.581Z,7.10
2022-12-05T19:03:59.804Z,7.00
2022-12-05T19:06:32.896Z,7.00
2022-12-05T19:09:02.405Z,7.00
2022-12-05T19:11:30.308Z,7.00
2022-12-05T19:13:59.583Z,7.00
2022-12-05T19:16:29.695Z,7.00
2022-12-05T19:18:59.775Z,7.00
2022-12-05T19:21:28.991Z,7.10
2022-12-05T19:23:56.793Z,7.10
2022-12-05T19:26:24.771Z,7.10
2022-12-05T19:28:52.383Z,7.10
2022-12-05T19:31:21.714Z,7.10
2022-12-05T19:33:56.155Z,7.10
2022-12-05T19:36:25.805Z,7.10
2022-12-05T19:38:56.753Z,7.20
2022-12-05T19:41:26.352Z,7.10
2022-12-05T19:43:54.705Z,7.10
2022-12-05T19:46:27.785Z,7.10
2022-12-05T19:48:56.957Z,7.20
2022-12-05T19:51:24.777Z,7.10
2022-12-05T19:53:51.780Z,7.20
2022-12-05T19:56:21.495Z,7.20
2022-12-05T19:58:52.939Z,7.20
2022-12-05T20:01:28.882Z,7.20
2022-12-05T20:04:03.680Z,7.10
2022-12-05T20:06:33.089Z,7.20
2022-12-05T20:09:00.610Z,7.30
2022-12-05T20:11:31.489Z,7.20
2022-12-05T20:14:00.694Z,7.20
2022-12-05T20:16:31.001Z,7.30
2022-12-05T20:18:59.703Z,7.20
2022-12-05T20:21:30.056Z,7.20
2022-12-05T20:23:58.752Z,7.20
2022-12-05T20:26:31.047Z,7.30
2022-12-05T20:28:59.396Z,7.30
2022-12-05T20:31:32.296Z,7.30
2022-12-05T20:33:59.700Z,7.40
2022-12-05T20:36:29.436Z,7.30
2022-12-05T20:38:58.433Z,7.30
2022-12-05T20:41:26.268Z,7.30
2022-12-05T20:43:55.972Z,7.30
2022-12-05T20:46:23.806Z,7.30
2022-12-05T20:48:53.334Z,7.30
2022-12-05T20:51:26.044Z,7.20
2022-12-05T20:53:53.335Z,7.20
2022-12-05T20:56:26.052Z,7.20
2022-12-05T20:58:56.004Z,7.10
2022-12-05T21:01:25.013Z,7.20
2022-12-05T21:03:53.588Z,7.10
2022-12-05T21:06:25.616Z,7.20
2022-12-05T21:08:54.264Z,7.20
2022-12-05T21:11:23.009Z,7.20
2022-12-05T21:13:50.380Z,7.10
2022-12-05T21:16:19.619Z,7.10
2022-12-05T21:18:47.652Z,7.10
2022-12-05T21:21:26.004Z,7.10
2022-12-05T21:23:58.889Z,7.20
2022-12-05T21:26:28.084Z,7.20
2022-12-05T21:28:55.595Z,7.10
2022-12-05T21:31:37.796Z,7.20
2022-12-05T21:34:09.125Z,7.10
2022-12-05T21:36:36.547Z,7.10
2022-12-05T21:39:05.859Z,7.10
2022-12-05T21:41:33.758Z,7.10
2022-12-05T21:44:01.706Z,7.10
2022-12-05T21:46:28.846Z,7.20
2022-12-05T21:48:55.979Z,7.20
2022-12-05T21:51:24.111Z,7.20
2022-12-05T21:53:51.623Z,7.20
2022-12-05T21:56:23.122Z,7.20
2022-12-05T21:58:51.184Z,7.30
2022-12-05T22:01:26.809Z,7.30
2022-12-05T22:04:01.959Z,7.40
2022-12-05T22:06:33.486Z,7.30
2022-12-05T22:09:00.849Z,7.30
2022-12-05T22:11:28.066Z,7.40
2022-12-05T22:13:55.257Z,7.40
2022-12-05T22:16:26.500Z,7.40
2022-12-05T22:18:57.579Z,7.50
2022-12-05T22:21:26.116Z,7.50
2022-12-05T22:23:53.334Z,7.50
2022-12-05T22:26:23.112Z,7.40
2022-12-05T22:28:51.211Z,7.40
2022-12-05T22:31:18.700Z,7.40
2022-12-05T22:33:46.603Z,7.40
2022-12-05T22:36:16.162Z,7.30
2022-12-05T22:38:45.664Z,7.30
2022-12-05T22:41:19.339Z,7.20
2022-12-05T22:43:48.058Z,7.30
2022-12-05T22:46:20.458Z,7.20
2022-12-05T22:48:48.719Z,7.20
2022-12-05T22:51:17.198Z,7.30
2022-12-05T22:53:44.474Z,7.30
2022-12-05T22:56:17.225Z,7.30
2022-12-05T22:58:45.556Z,7.20
2022-12-05T23:01:15.489Z,7.20
2022-12-05T23:03:44.175Z,7.30
2022-12-05T23:06:13.036Z,7.30
2022-12-05T23:08:41.834Z,7.30
2022-12-05T23:11:10.405Z,7.20
2022-12-05T23:13:38.542Z,7.30
2022-12-05T23:16:15.054Z,7.30
2022-12-05T23:18:48.602Z,7.20
2022-12-05T23:21:34.276Z,7.20
2022-12-05T23:24:03.845Z,7.20
2022-12-05T23:26:36.683Z,7.20
2022-12-05T23:29:04.688Z,7.20
2022-12-05T23:31:31.872Z,7.20
2022-12-05T23:34:03.223Z,7.20
2022-12-05T23:36:32.721Z,7.20
2022-12-05T23:38:59.782Z,7.30
2022-12-05T23:41:27.708Z,7.20
2022-12-05T23:43:55.197Z,7.20
2022-12-05T23:46:25.164Z,7.20
2022-12-05T23:48:52.954Z,7.20
2022-12-05T23:51:22.707Z,7.10
2022-12-05T23:53:53.904Z,7.10
2022-12-05T23:56:23.691Z,7.20
2022-12-05T23:58:51.390Z,7.20
